Time;durP1;ratioP1;P1;durP2;ratioP2;P2;SDS_P1;SDS_P2;PMS_P1;PMS_P2;Temp;Humidity;BMP_temperature;BMP_pressure;BME280_temperature;BME280_humidity;BME280_pressure;Samples;Min_cycle;Max_cycle;Signal;HPM_P1;HPM_P2
2023/05/28 00:01:33;;;;;;;6.00;4.60;;;14.80;57.50;;;;;;6158880;23;20377;-77
2023/05/28 00:03:58;;;;;;;7.97;5.07;;;14.80;57.60;;;;;;6154944;23;20161;-78
2023/05/28 00:06:24;;;;;;;6.43;5.03;;;14.80;57.70;;;;;;6181402;23;20202;-77
2023/05/28 00:08:50;;;;;;;12.27;5.93;;;14.70;57.90;;;;;;6131399;23;20178;-76
2023/05/28 00:11:32;;;;;;;12.27;5.87;;;14.70;57.80;;;;;;6205357;23;20165;-79
2023/05/28 00:13:58;;;;;;;7.33;5.37;;;14.70;58.00;;;;;;6181321;23;20385;-77
2023/05/28 00:16:26;;;;;;;7.53;5.47;;;14.60;58.10;;;;;;6156352;23;20380;-78
2023/05/28 00:18:53;;;;;;;8.63;5.90;;;14.70;58.40;;;;;;6180279;23;20664;-77
2023/05/28 00:21:19;;;;;;;9.67;6.10;;;14.60;58.70;;;;;;6155879;23;20401;-76
2023/05/28 00:23:45;;;;;;;9.80;6.47;;;14.70;58.80;;;;;;6178703;23;20382;-80
2023/05/28 00:26:11;;;;;;;7.33;4.83;;;14.70;58.80;;;;;;6179966;23;20174;-77
2023/05/28 00:28:37;;;;;;;7.70;5.40;;;14.60;58.70;;;;;;6202689;23;20150;-75
2023/05/28 00:31:03;;;;;;;9.10;5.30;;;14.70;58.70;;;;;;6153236;23;20381;-78
2023/05/28 00:33:32;;;;;;;7.93;5.50;;;14.60;58.60;;;;;;6154017;23;20429;-77
2023/05/28 00:35:58;;;;;;;9.67;5.73;;;14.60;58.40;;;;;;6181422;23;20373;-76
2023/05/28 00:38:24;;;;;;;8.47;5.30;;;14.60;58.20;;;;;;6205061;23;20406;-76
2023/05/28 00:40:50;;;;;;;11.00;5.63;;;14.50;57.90;;;;;;6154677;23;20147;-77
2023/05/28 00:43:19;;;;;;;7.00;5.10;;;14.50;57.80;;;;;;6176787;23;20154;-74
2023/05/28 00:45:48;;;;;;;8.03;5.80;;;14.50;57.60;;;;;;6178162;23;20378;-76
2023/05/28 00:48:18;;;;;;;9.60;5.37;;;14.50;57.40;;;;;;6129870;23;20370;-77
2023/05/28 00:50:44;;;;;;;7.27;5.47;;;14.50;57.40;;;;;;6178170;23;20390;-77
2023/05/28 00:53:12;;;;;;;9.10;6.13;;;14.50;57.30;;;;;;6155233;23;20367;-77
2023/05/28 00:55:38;;;;;;;7.80;5.10;;;14.50;57.40;;;;;;6155904;23;20424;-76
2023/05/28 00:58:07;;;;;;;7.77;5.60;;;14.50;57.60;;;;;;6203541;23;20377;-77
2023/05/28 01:00:37;;;;;;;9.30;5.23;;;14.50;57.80;;;;;;6153068;23;20504;-76
2023/05/28 01:03:04;;;;;;;5.67;4.30;;;14.40;57.90;;;;;;6202568;23;20695;-75
2023/05/28 01:05:31;;;;;;;9.53;5.30;;;14.40;58.30;;;;;;6169162;23;20400;-76
2023/05/28 01:08:01;;;;;;;9.50;5.97;;;14.30;58.70;;;;;;6120666;23;20471;-76
2023/05/28 01:10:30;;;;;;;10.50;5.10;;;14.20;59.00;;;;;;6145187;23;20387;-76
2023/05/28 01:12:59;;;;;;;7.30;5.50;;;14.20;59.20;;;;;;6171406;23;20426;-77
2023/05/28 01:15:25;;;;;;;9.63;5.73;;;14.20;59.40;;;;;;6121786;23;20385;-76
2023/05/28 01:17:59;;;;;;;10.33;5.40;;;14.10;59.70;;;;;;6149604;23;20367;-77
2023/05/28 01:20:28;;;;;;;7.07;5.27;;;14.10;60.00;;;;;;6147147;23;20437;-78
2023/05/28 01:22:59;;;;;;;8.60;4.90;;;14.00;60.10;;;;;;6146959;23;20357;-75
2023/05/28 01:25:28;;;;;;;8.53;5.40;;;13.90;60.10;;;;;;6122615;23;20649;-76
2023/05/28 01:28:02;;;;;;;14.43;6.10;;;14.00;60.30;;;;;;6150073;23;20418;-77
2023/05/28 01:30:28;;;;;;;9.47;5.03;;;13.90;60.30;;;;;;6099415;23;20406;-74
2023/05/28 01:32:54;;;;;;;7.07;4.80;;;13.90;60.20;;;;;;6145608;23;20906;-76
2023/05/28 01:35:21;;;;;;;8.73;5.27;;;13.90;60.00;;;;;;6123917;23;20370;-75
2023/05/28 01:37:49;;;;;;;7.60;4.77;;;13.90;60.10;;;;;;6180099;23;20507;-76
2023/05/28 01:40:17;;;;;;;7.30;4.37;;;13.80;60.30;;;;;;6142045;23;20408;-74
2023/05/28 01:42:46;;;;;;;5.00;3.87;;;13.80;60.80;;;;;;6116893;23;20388;-76
2023/05/28 01:45:14;;;;;;;5.90;3.90;;;13.70;61.40;;;;;;6118017;23;20737;-76
2023/05/28 01:47:40;;;;;;;6.10;4.83;;;13.60;62.10;;;;;;6092826;23;20456;-77
2023/05/28 01:50:07;;;;;;;5.80;4.37;;;13.60;62.90;;;;;;6116529;23;20440;-76
2023/05/28 01:52:33;;;;;;;6.37;4.60;;;13.60;63.70;;;;;;6090786;23;20387;-75
2023/05/28 01:55:00;;;;;;;8.03;4.97;;;13.50;64.20;;;;;;6117201;23;20649;-77
2023/05/28 01:57:25;;;;;;;6.60;5.03;;;13.50;65.50;;;;;;6141497;23;20375;-76
2023/05/28 01:59:52;;;;;;;9.60;5.70;;;13.50;65.80;;;;;;6115606;23;20180;-75
2023/05/28 02:02:21;;;;;;;10.07;5.80;;;13.40;66.70;;;;;;6116723;23;20403;-77
2023/05/28 02:04:46;;;;;;;9.60;5.23;;;13.40;68.10;;;;;;6141699;23;20467;-75
2023/05/28 02:07:13;;;;;;;5.83;4.40;;;13.40;68.90;;;;;;6146458;23;20418;-75
2023/05/28 02:09:39;;;;;;;7.40;4.90;;;13.30;69.90;;;;;;6143206;23;20164;-76
2023/05/28 02:12:07;;;;;;;6.47;4.60;;;13.20;71.60;;;;;;6150652;23;20390;-76
2023/05/28 02:14:33;;;;;;;9.43;6.13;;;13.20;73.70;;;;;;6178111;23;20643;-77
2023/05/28 02:16:59;;;;;;;8.80;6.30;;;13.20;76.80;;;;;;6204676;23;20139;-77
2023/05/28 02:19:25;;;;;;;8.93;5.60;;;13.10;78.90;;;;;;6180094;23;20175;-76
2023/05/28 02:21:52;;;;;;;8.47;5.53;;;13.10;81.10;;;;;;6204753;23;20369;-76
2023/05/28 02:24:18;;;;;;;10.37;6.70;;;13.00;82.70;;;;;;6153674;23;20454;-75
2023/05/28 02:26:43;;;;;;;10.10;6.00;;;13.00;83.20;;;;;;6179174;23;20415;-77
2023/05/28 02:29:09;;;;;;;10.70;7.10;;;13.00;83.80;;;;;;6175889;23;20175;-76
2023/05/28 02:31:35;;;;;;;9.43;6.53;;;12.90;85.20;;;;;;6176496;23;20158;-76
2023/05/28 02:34:01;;;;;;;8.67;5.30;;;12.90;86.40;;;;;;6153375;23;20477;-76
2023/05/28 02:36:27;;;;;;;6.87;5.10;;;12.90;87.30;;;;;;6179638;23;20151;-75
2023/05/28 02:38:52;;;;;;;7.87;5.07;;;12.80;88.70;;;;;;6177261;23;20171;-75
2023/05/28 02:41:18;;;;;;;7.83;5.73;;;12.80;89.90;;;;;;6176547;23;20382;-76
2023/05/28 02:43:47;;;;;;;7.87;5.57;;;12.70;90.20;;;;;;6151855;23;20147;-74
2023/05/28 02:46:14;;;;;;;10.60;6.30;;;12.70;90.60;;;;;;6177445;23;20904;-74
2023/05/28 02:48:40;;;;;;;9.40;5.70;;;12.60;91.10;;;;;;6176916;23;20370;-77
2023/05/28 02:51:07;;;;;;;8.23;5.00;;;12.60;91.60;;;;;;6178949;23;20157;-77
2023/05/28 02:53:56;;;;;;;10.20;6.43;;;12.60;92.00;;;;;;6194842;23;20475;-76
2023/05/28 02:56:23;;;;;;;11.03;6.43;;;12.60;92.40;;;;;;6203176;23;20363;-76
2023/05/28 02:58:49;;;;;;;8.67;6.00;;;12.50;92.90;;;;;;6201739;23;20430;-76
2023/05/28 03:01:15;;;;;;;7.03;4.80;;;12.50;93.40;;;;;;6201294;23;20406;-75
2023/05/28 03:03:40;;;;;;;8.67;4.40;;;12.50;94.20;;;;;;6202403;23;20186;-76
2023/05/28 03:06:07;;;;;;;8.80;5.60;;;12.50;94.60;;;;;;6178133;23;20179;-75
2023/05/28 03:08:42;;;;;;;9.40;6.47;;;12.40;95.30;;;;;;6153554;23;20463;-74
2023/05/28 03:11:08;;;;;;;8.70;6.37;;;12.40;95.90;;;;;;6173538;23;20401;-76
2023/05/28 03:13:33;;;;;;;10.23;6.10;;;12.40;96.30;;;;;;6150049;23;20152;-75
2023/05/28 03:15:59;;;;;;;10.00;6.50;;;12.30;96.90;;;;;;6201423;23;20142;-76
2023/05/28 03:18:28;;;;;;;10.87;6.90;;;12.30;97.60;;;;;;6153749;23;20150;-76
2023/05/28 03:20:54;;;;;;;11.60;6.23;;;12.40;98.20;;;;;;6175898;23;20393;-75
2023/05/28 03:23:20;;;;;;;6.90;5.03;;;12.40;98.40;;;;;;6203347;23;20148;-76
2023/05/28 03:26:01;;;;;;;6.53;4.50;;;12.30;98.70;;;;;;6152895;23;20151;-76
2023/05/28 03:28:26;;;;;;;7.10;5.57;;;12.30;99.00;;;;;;6175142;23;20627;-75
2023/05/28 03:31:12;;;;;;;8.77;5.70;;;12.30;99.40;;;;;;6197085;23;20230;-73
2023/05/28 03:33:38;;;;;;;10.50;5.37;;;12.20;99.80;;;;;;6199042;23;20422;-75
2023/05/28 03:36:06;;;;;;;9.40;5.03;;;12.30;99.90;;;;;;6148763;23;20473;-75
2023/05/28 03:38:35;;;;;;;14.50;6.40;;;12.30;99.90;;;;;;6197672;23;20143;-74
2023/05/28 03:41:01;;;;;;;5.73;5.00;;;12.30;99.90;;;;;;6173029;23;20381;-76
2023/05/28 03:43:26;;;;;;;5.80;4.37;;;12.30;99.90;;;;;;6149245;23;20382;-76
2023/05/28 03:45:52;;;;;;;10.93;6.57;;;12.20;99.90;;;;;;6196689;23;20146;-75
2023/05/28 03:48:18;;;;;;;7.70;5.97;;;12.30;99.90;;;;;;6197167;23;20135;-74
2023/05/28 03:50:43;;;;;;;10.60;6.33;;;12.30;99.90;;;;;;6171352;23;20178;-75
2023/05/28 03:53:09;;;;;;;7.70;5.33;;;12.30;99.90;;;;;;6172327;23;20144;-75
2023/05/28 03:55:35;;;;;;;8.77;4.90;;;12.30;99.90;;;;;;6162162;23;20409;-75
2023/05/28 03:58:02;;;;;;;7.27;5.17;;;12.30;99.90;;;;;;6164346;23;20158;-75
2023/05/28 04:00:28;;;;;;;10.00;6.50;;;12.30;99.90;;;;;;6164819;23;20424;-74
2023/05/28 04:02:54;;;;;;;10.00;6.30;;;12.40;99.90;;;;;;6170521;23;20664;-75
2023/05/28 04:05:20;;;;;;;7.03;4.73;;;12.40;99.90;;;;;;6171117;23;20359;-76
2023/05/28 04:07:49;;;;;;;11.53;6.00;;;12.40;99.90;;;;;;6146110;23;20183;-74
2023/05/28 04:10:15;;;;;;;8.93;5.47;;;12.40;99.90;;;;;;6170528;23;20480;-74
2023/05/28 04:12:40;;;;;;;12.37;5.83;;;12.50;99.90;;;;;;6171152;23;20378;-75
2023/05/28 04:15:07;;;;;;;10.47;6.47;;;12.50;99.90;;;;;;6170219;23;20372;-74
2023/05/28 04:17:32;;;;;;;7.73;5.53;;;12.50;99.90;;;;;;6171727;23;20141;-75
2023/05/28 04:19:58;;;;;;;8.90;5.57;;;12.60;99.90;;;;;;6172053;23;20398;-74
2023/05/28 04:22:25;;;;;;;11.20;6.33;;;12.60;99.90;;;;;;6171052;23;20154;-74
2023/05/28 04:24:55;;;;;;;8.60;4.97;;;12.70;99.90;;;;;;6197082;23;20418;-73
2023/05/28 04:27:21;;;;;;;5.77;4.23;;;12.70;99.80;;;;;;6196272;23;20425;-74
2023/05/28 04:29:47;;;;;;;5.00;3.80;;;12.80;99.70;;;;;;6195307;23;20490;-73
2023/05/28 04:32:13;;;;;;;5.03;4.10;;;12.80;99.60;;;;;;6196497;23;20392;-75
2023/05/28 04:34:42;;;;;;;7.17;4.27;;;12.80;99.50;;;;;;6170259;23;20183;-75
2023/05/28 04:37:07;;;;;;;7.20;5.20;;;12.90;99.50;;;;;;6197425;23;20150;-78
2023/05/28 04:39:34;;;;;;;7.20;4.27;;;12.90;99.40;;;;;;6146810;23;20402;-74
2023/05/28 04:42:03;;;;;;;6.77;5.10;;;13.00;98.90;;;;;;6194923;23;20783;-74
2023/05/28 04:44:32;;;;;;;5.90;4.03;;;13.00;98.30;;;;;;6197750;23;20651;-73
2023/05/28 04:46:59;;;;;;;5.07;4.30;;;13.10;97.70;;;;;;6178142;23;20428;-74
2023/05/28 04:49:25;;;;;;;8.63;4.87;;;13.20;97.10;;;;;;6200818;23;20395;-75
2023/05/28 04:51:52;;;;;;;8.77;5.20;;;13.50;95.60;;;;;;6172839;23;20201;-75
2023/05/28 04:54:17;;;;;;;6.47;4.50;;;14.00;92.50;;;;;;6171001;23;20401;-74
2023/05/28 04:56:43;;;;;;;8.40;4.93;;;14.60;87.60;;;;;;6170472;23;20796;-75
2023/05/28 04:59:10;;;;;;;13.03;6.13;;;15.10;80.00;;;;;;6174163;23;20178;-74
2023/05/28 05:01:38;;;;;;;8.00;5.50;;;15.60;72.50;;;;;;6173574;23;20411;-75
2023/05/28 05:04:05;;;;;;;10.40;6.07;;;16.10;68.30;;;;;;6149211;23;20158;-75
2023/05/28 05:06:31;;;;;;;7.80;5.17;;;16.40;64.20;;;;;;6198939;23;20432;-75
2023/05/28 05:08:57;;;;;;;8.13;5.23;;;16.80;61.70;;;;;;6177576;23;20432;-74
2023/05/28 05:11:23;;;;;;;10.87;6.03;;;17.10;59.50;;;;;;6146585;23;20142;-75
2023/05/28 05:13:48;;;;;;;9.60;6.93;;;17.50;58.30;;;;;;6196814;23;20508;-75
2023/05/28 05:16:14;;;;;;;7.83;4.57;;;17.70;56.50;;;;;;6196475;23;20138;-75
2023/05/28 05:18:40;;;;;;;9.33;5.10;;;18.00;55.90;;;;;;6196583;23;20197;-75
2023/05/28 05:21:06;;;;;;;6.37;4.73;;;18.30;55.20;;;;;;6195610;23;20136;-74
2023/05/28 05:23:32;;;;;;;7.20;5.00;;;18.60;54.50;;;;;;6172582;23;20494;-75
2023/05/28 05:25:58;;;;;;;10.40;5.30;;;18.70;53.70;;;;;;6196195;23;20397;-76
2023/05/28 05:28:23;;;;;;;8.73;5.40;;;18.90;53.00;;;;;;6124924;23;20232;-74
2023/05/28 05:30:49;;;;;;;6.40;4.50;;;19.20;52.30;;;;;;6173215;23;20382;-75
2023/05/28 05:33:17;;;;;;;6.40;5.07;;;19.40;51.60;;;;;;6173608;23;20610;-75
2023/05/28 05:36:07;;;;;;;7.20;4.80;;;19.60;51.00;;;;;;6207968;23;20407;-75
2023/05/28 05:38:54;;;;;;;7.60;5.10;;;19.90;50.40;;;;;;6203093;23;20658;-77
2023/05/28 05:41:34;;;;;;;8.70;4.73;;;20.10;49.80;;;;;;6174723;23;20374;-75
2023/05/28 05:44:20;;;;;;;9.67;5.00;;;20.30;49.10;;;;;;6199921;23;20467;-75
2023/05/28 05:46:47;;;;;;;8.40;4.93;;;20.50;48.80;;;;;;6175110;23;20672;-75
2023/05/28 05:49:14;;;;;;;5.80;4.33;;;20.70;48.20;;;;;;6175616;23;20417;-74
2023/05/28 05:51:41;;;;;;;6.53;5.20;;;20.90;47.80;;;;;;6174093;23;20362;-75
2023/05/28 05:54:07;;;;;;;7.20;5.30;;;21.00;47.20;;;;;;6201258;23;20366;-76
2023/05/28 05:56:34;;;;;;;7.23;5.20;;;21.10;46.70;;;;;;6198831;23;20135;-75
2023/05/28 05:59:00;;;;;;;9.70;5.50;;;21.30;46.60;;;;;;6175000;23;20910;-75
2023/05/28 06:01:26;;;;;;;7.73;5.80;;;21.40;46.30;;;;;;6200865;23;20361;-75
2023/05/28 06:03:52;;;;;;;7.10;4.87;;;21.40;46.90;;;;;;6202759;23;20370;-75
2023/05/28 06:06:38;;;;;;;8.63;5.43;;;21.40;47.20;;;;;;6201122;23;20872;-75
2023/05/28 06:09:13;;;;;;;8.20;6.10;;;21.40;47.20;;;;;;6210389;23;20401;-77
2023/05/28 06:11:45;;;;;;;7.07;5.17;;;21.50;47.30;;;;;;6177705;23;20385;-75
2023/05/28 06:14:11;;;;;;;7.93;5.90;;;21.60;47.10;;;;;;6153588;23;20377;-75
2023/05/28 06:16:37;;;;;;;7.57;6.20;;;21.70;46.60;;;;;;6205162;23;20366;-76
2023/05/28 06:19:02;;;;;;;9.60;6.27;;;21.60;46.60;;;;;;6205562;23;20167;-77
2023/05/28 06:21:28;;;;;;;7.37;5.90;;;21.70;46.60;;;;;;6203022;23;20161;-75
2023/05/28 06:23:54;;;;;;;8.10;5.80;;;21.80;46.30;;;;;;6178815;23;20218;-76
2023/05/28 06:26:21;;;;;;;8.30;5.67;;;21.90;46.10;;;;;;6181860;23;20409;-75
2023/05/28 06:28:47;;;;;;;9.40;5.13;;;22.00;45.90;;;;;;6205050;23;20829;-75
2023/05/28 06:31:13;;;;;;;7.57;5.43;;;22.20;45.70;;;;;;6181859;23;20397;-77
2023/05/28 06:33:40;;;;;;;8.40;5.67;;;22.30;45.30;;;;;;6181924;23;20194;-76
2023/05/28 06:36:07;;;;;;;5.80;4.53;;;22.20;45.20;;;;;;6181287;23;20782;-76
2023/05/28 06:38:35;;;;;;;9.93;6.57;;;22.30;45.10;;;;;;6181895;23;20401;-76
2023/05/28 06:41:01;;;;;;;8.07;6.80;;;22.20;44.80;;;;;;6180360;23;20358;-77
2023/05/28 06:43:30;;;;;;;6.87;5.20;;;22.00;44.80;;;;;;6204498;23;20365;-76
2023/05/28 06:46:00;;;;;;;9.77;7.00;;;21.80;45.20;;;;;;6158918;23;20370;-75
2023/05/28 06:48:26;;;;;;;8.60;6.07;;;21.60;46.20;;;;;;6179867;23;20396;-76
2023/05/28 06:50:52;;;;;;;9.53;6.93;;;21.50;46.70;;;;;;6179872;23;20472;-77
2023/05/28 06:53:18;;;;;;;8.37;6.60;;;21.60;46.90;;;;;;6180993;23;20389;-77
2023/05/28 06:55:44;;;;;;;7.13;6.27;;;21.50;47.00;;;;;;6182697;23;20166;-76
2023/05/28 06:58:36;;;;;;;6.70;4.97;;;21.50;47.30;;;;;;6147237;23;20440;-75
2023/05/28 07:01:14;;;;;;;9.07;4.97;;;21.60;46.80;;;;;;6218953;23;20457;-75
2023/05/28 07:04:03;;;;;;;6.30;5.03;;;21.70;46.40;;;;;;6178461;23;20480;-75
2023/05/28 07:06:49;;;;;;;7.00;4.53;;;21.70;46.00;;;;;;6182181;23;20413;-76
2023/05/28 07:09:25;;;;;;;11.30;6.23;;;21.70;46.00;;;;;;6205452;23;20397;-77
2023/05/28 07:11:51;;;;;;;9.03;5.90;;;21.60;45.90;;;;;;6182754;23;20441;-77
2023/05/28 07:14:17;;;;;;;8.50;5.37;;;21.50;46.10;;;;;;6182282;23;20135;-76
2023/05/28 07:16:43;;;;;;;9.80;6.73;;;21.50;46.10;;;;;;6182032;23;20151;-75
2023/05/28 07:19:09;;;;;;;8.90;4.80;;;21.40;46.30;;;;;;6158185;23;20193;-77
2023/05/28 07:21:38;;;;;;;8.37;4.33;;;21.40;46.30;;;;;;6182606;23;20366;-76
2023/05/28 07:24:20;;;;;;;10.77;5.23;;;21.30;46.40;;;;;;6186577;23;20423;-77
2023/05/28 07:26:46;;;;;;;7.83;4.40;;;21.40;46.60;;;;;;6209621;23;20501;-76
2023/05/28 07:29:18;;;;;;;7.20;5.77;;;21.30;46.90;;;;;;6184011;23;20466;-78
2023/05/28 07:31:44;;;;;;;10.03;6.40;;;21.00;46.30;;;;;;6176433;23;20402;-76
2023/05/28 07:34:12;;;;;;;8.60;6.13;;;20.70;47.00;;;;;;6151672;23;20432;-76
2023/05/28 07:36:42;;;;;;;7.90;4.93;;;20.40;47.50;;;;;;6151203;23;20422;-76
2023/05/28 07:39:10;;;;;;;6.80;3.87;;;20.20;47.60;;;;;;6175740;23;20402;-76
2023/05/28 07:41:36;;;;;;;11.97;5.60;;;20.10;47.20;;;;;;6174758;23;20163;-77
2023/05/28 07:44:12;;;;;;;10.30;5.50;;;20.00;48.00;;;;;;6149837;23;20439;-77
2023/05/28 07:46:38;;;;;;;8.90;4.80;;;19.90;47.50;;;;;;6149139;23;20434;-77
2023/05/28 07:49:16;;;;;;;8.30;5.70;;;19.90;47.90;;;;;;6129267;23;20171;-76
2023/05/28 07:51:45;;;;;;;6.93;4.73;;;19.80;48.20;;;;;;6174946;23;20375;-78
2023/05/28 07:54:16;;;;;;;5.13;4.03;;;19.80;48.10;;;;;;6126600;23;20356;-76
2023/05/28 07:56:42;;;;;;;7.00;4.40;;;19.90;48.20;;;;;;6175092;23;20414;-76
2023/05/28 07:59:12;;;;;;;15.87;6.40;;;20.00;48.20;;;;;;6176075;23;20600;-76
2023/05/28 08:01:38;;;;;;;12.43;6.00;;;20.00;47.80;;;;;;6128737;23;20374;-76
2023/05/28 08:04:06;;;;;;;8.90;4.77;;;19.90;47.80;;;;;;6208409;23;20381;-77
2023/05/28 08:06:35;;;;;;;7.63;5.00;;;20.00;48.20;;;;;;6135008;23;20406;-75
2023/05/28 08:09:04;;;;;;;5.00;4.17;;;20.00;47.80;;;;;;6182081;23;20492;-76
2023/05/28 08:11:30;;;;;;;11.07;6.30;;;20.00;47.90;;;;;;6207418;23;20362;-78
2023/05/28 08:13:56;;;;;;;9.60;6.40;;;20.10;48.00;;;;;;6159055;23;20456;-77
2023/05/28 08:16:22;;;;;;;9.87;6.03;;;20.00;48.30;;;;;;6183464;23;20370;-78
2023/05/28 08:19:08;;;;;;;8.13;5.47;;;19.90;48.50;;;;;;6182928;23;20389;-77
2023/05/28 08:21:35;;;;;;;8.27;4.47;;;19.90;48.70;;;;;;6159826;23;20378;-77
2023/05/28 08:24:02;;;;;;;6.27;4.43;;;20.10;48.60;;;;;;6182187;23;20386;-77
2023/05/28 08:26:31;;;;;;;8.70;4.93;;;20.20;48.40;;;;;;6181939;23;20430;-77
2023/05/28 08:28:57;;;;;;;8.37;4.77;;;20.30;47.90;;;;;;6158601;23;20402;-76
2023/05/28 08:31:25;;;;;;;13.20;4.87;;;20.30;47.40;;;;;;6160460;23;20396;-78
2023/05/28 08:34:07;;;;;;;6.93;3.90;;;20.30;47.30;;;;;;6158377;23;20421;-77
2023/05/28 08:36:53;;;;;;;6.93;3.10;;;20.30;47.60;;;;;;6179600;23;20440;-77
2023/05/28 08:39:33;;;;;;;6.60;4.10;;;20.50;47.60;;;;;;6180133;23;20411;-78
2023/05/28 08:41:59;;;;;;;8.10;4.20;;;20.60;46.70;;;;;;6154763;23;20378;-76
2023/05/28 08:44:28;;;;;;;7.13;4.20;;;20.60;46.30;;;;;;6155068;23;20143;-78
2023/05/28 08:46:56;;;;;;;6.07;4.23;;;20.70;46.20;;;;;;6180431;23;20434;-76
2023/05/28 08:49:52;;;;;;;7.70;3.80;;;20.70;45.90;;;;;;6176178;23;20438;-76
2023/05/28 08:52:28;;;;;;;8.07;4.10;;;20.70;45.90;;;;;;6155978;23;20405;-79
2023/05/28 08:55:00;;;;;;;9.63;4.37;;;20.70;45.10;;;;;;6180435;23;20380;-76
2023/05/28 08:57:38;;;;;;;6.30;3.67;;;20.80;44.90;;;;;;6155224;23;20360;-79
2023/05/28 09:00:08;;;;;;;5.27;3.27;;;20.80;45.00;;;;;;6180780;23;20423;-78
2023/05/28 09:02:45;;;;;;;7.53;3.80;;;20.90;44.80;;;;;;6177757;23;20496;-78
2023/05/28 09:05:11;;;;;;;7.13;4.20;;;21.00;44.50;;;;;;6154694;23;20414;-79
2023/05/28 09:07:37;;;;;;;7.17;4.13;;;21.10;44.60;;;;;;6178967;23;20438;-76
2023/05/28 09:10:07;;;;;;;8.37;4.27;;;21.30;44.20;;;;;;6178859;23;20454;-75
2023/05/28 09:12:37;;;;;;;7.50;3.73;;;21.40;43.90;;;;;;6178610;23;20371;-78
2023/05/28 09:15:06;;;;;;;6.20;4.27;;;21.50;43.70;;;;;;6201918;23;20370;-78
2023/05/28 09:17:39;;;;;;;11.40;4.80;;;21.60;43.50;;;;;;6179070;23;20389;-77
2023/05/28 09:20:17;;;;;;;8.53;4.27;;;21.70;43.00;;;;;;6178790;23;20450;-77
2023/05/28 09:22:46;;;;;;;6.40;3.30;;;21.80;42.30;;;;;;6179428;23;20394;-79
2023/05/28 09:25:26;;;;;;;6.80;4.10;;;21.80;42.50;;;;;;6179928;23;20436;-78
2023/05/28 09:28:00;;;;;;;5.00;3.43;;;21.90;42.70;;;;;;6178554;23;20422;-76
2023/05/28 09:30:26;;;;;;;6.27;3.97;;;22.00;42.50;;;;;;6178891;23;20399;-78
2023/05/28 09:33:00;;;;;;;10.10;4.13;;;22.00;42.80;;;;;;6180274;23;20389;-79
2023/05/28 09:35:26;;;;;;;7.67;4.37;;;22.10;43.10;;;;;;6178285;23;20361;-77
2023/05/28 09:38:00;;;;;;;7.10;3.57;;;22.20;42.00;;;;;;6177761;23;20375;-78
2023/05/28 09:40:27;;;;;;;8.03;3.70;;;22.30;41.40;;;;;;6178705;23;20407;-79
2023/05/28 09:42:53;;;;;;;4.07;3.27;;;22.30;40.80;;;;;;6178816;23;20375;-77
2023/05/28 09:45:25;;;;;;;5.00;3.60;;;22.30;41.10;;;;;;6182026;23;20375;-78
2023/05/28 09:47:51;;;;;;;6.33;4.03;;;22.40;40.40;;;;;;6182698;23;20449;-81
2023/05/28 09:50:18;;;;;;;7.47;4.20;;;22.50;40.40;;;;;;6157524;23;20401;-80
2023/05/28 09:52:46;;;;;;;6.40;3.57;;;22.40;40.30;;;;;;6158072;23;20399;-80
2023/05/28 09:55:17;;;;;;;7.10;4.23;;;22.30;40.20;;;;;;6158175;23;20379;-81
2023/05/28 09:57:58;;;;;;;5.73;3.23;;;22.40;40.30;;;;;;6182972;23;20391;-76
2023/05/28 10:00:33;;;;;;;9.17;4.83;;;22.50;40.00;;;;;;6181824;23;20402;-77
2023/05/28 10:03:25;;;;;;;8.50;4.10;;;22.70;39.80;;;;;;6183198;23;20388;-77
2023/05/28 10:06:07;;;;;;;7.17;3.93;;;22.70;39.50;;;;;;6181503;23;20383;-76
2023/05/28 10:08:37;;;;;;;6.60;3.90;;;22.70;39.30;;;;;;6159159;23;20438;-78
2023/05/28 10:11:07;;;;;;;6.23;3.67;;;22.80;39.10;;;;;;6133615;23;20382;-78
2023/05/28 10:13:34;;;;;;;6.03;4.17;;;22.90;38.60;;;;;;6158488;23;20379;-79
2023/05/28 10:16:02;;;;;;;8.07;4.13;;;22.90;38.30;;;;;;6158231;23;20409;-78
2023/05/28 10:18:30;;;;;;;5.73;3.00;;;23.00;37.40;;;;;;6181810;23;20355;-77
2023/05/28 10:20:57;;;;;;;6.40;4.00;;;22.90;36.90;;;;;;6133166;23;20406;-76
2023/05/28 10:23:24;;;;;;;6.77;4.27;;;23.00;36.60;;;;;;6157973;23;20409;-77
2023/05/28 10:25:52;;;;;;;6.80;3.73;;;23.10;36.30;;;;;;6157713;23;20370;-77
2023/05/28 10:28:21;;;;;;;4.83;3.50;;;23.10;36.40;;;;;;6157930;23;20399;-77
2023/05/28 10:31:06;;;;;;;9.60;4.40;;;23.30;36.80;;;;;;6132486;23;20402;-77
2023/05/28 10:33:39;;;;;;;7.97;4.73;;;23.40;36.30;;;;;;6158497;23;20423;-79
2023/05/28 10:36:16;;;;;;;6.80;4.60;;;23.50;36.10;;;;;;6127141;23;20380;-78
2023/05/28 10:38:51;;;;;;;4.70;3.87;;;23.70;35.10;;;;;;6150942;23;20406;-78
2023/05/28 10:41:22;;;;;;;4.40;3.30;;;23.70;34.90;;;;;;6127091;23;20379;-78
2023/05/28 10:44:04;;;;;;;7.90;3.50;;;23.70;35.00;;;;;;6129217;23;20358;-78
2023/05/28 10:46:39;;;;;;;5.30;3.50;;;23.70;34.80;;;;;;6127268;23;20458;-78
2023/05/28 10:49:21;;;;;;;5.20;3.70;;;23.40;34.80;;;;;;6127591;23;20496;-79
2023/05/28 10:52:22;;;;;;;6.50;4.00;;;23.40;35.00;;;;;;6166183;23;20390;-77
2023/05/28 10:54:52;;;;;;;8.03;4.27;;;23.50;35.00;;;;;;6156676;23;20445;-77
2023/05/28 10:57:41;;;;;;;6.10;3.60;;;23.50;34.80;;;;;;6181475;23;20378;-78
2023/05/28 11:00:14;;;;;;;7.20;3.60;;;23.50;34.40;;;;;;6133207;23;20402;-81
2023/05/28 11:02:47;;;;;;;7.80;4.13;;;23.50;34.10;;;;;;6133642;23;20447;-77
2023/05/28 11:05:13;;;;;;;5.90;4.47;;;23.60;34.00;;;;;;6180575;23;20386;-78
2023/05/28 11:07:42;;;;;;;6.63;5.20;;;23.70;33.10;;;;;;6182821;23;20414;-78
2023/05/28 11:10:11;;;;;;;6.47;5.13;;;23.80;32.90;;;;;;6183825;23;20479;-79
2023/05/28 11:12:40;;;;;;;5.00;4.20;;;23.80;32.20;;;;;;6158816;23;20437;-78
2023/05/28 11:15:11;;;;;;;5.33;3.80;;;23.80;32.10;;;;;;6127155;23;20391;-78
2023/05/28 11:17:49;;;;;;;5.37;4.03;;;23.80;32.60;;;;;;6102049;23;20384;-78
2023/05/28 11:20:19;;;;;;;8.63;4.67;;;23.80;33.10;;;;;;6102690;23;20387;-77
2023/05/28 11:22:48;;;;;;;4.37;3.33;;;23.90;33.30;;;;;;6127389;23;20388;-79
2023/05/28 11:25:16;;;;;;;4.60;4.13;;;23.90;33.50;;;;;;6127040;23;20808;-79
2023/05/28 11:27:45;;;;;;;5.33;4.00;;;24.00;33.70;;;;;;6152159;23;20404;-79
2023/05/28 11:30:16;;;;;;;7.20;4.80;;;24.10;33.90;;;;;;6126206;23;20399;-78
2023/05/28 11:32:45;;;;;;;5.90;3.70;;;24.20;33.70;;;;;;6102571;23;20447;-80
2023/05/28 11:35:15;;;;;;;8.03;4.40;;;24.30;33.30;;;;;;6122256;23;20408;-80
2023/05/28 11:37:43;;;;;;;4.77;3.80;;;24.40;33.00;;;;;;6122382;23;20396;-78
2023/05/28 11:40:11;;;;;;;7.40;4.90;;;24.30;33.20;;;;;;6073262;23;20541;-77
2023/05/28 11:42:42;;;;;;;7.70;6.10;;;24.40;32.90;;;;;;6073478;23;20369;-79
2023/05/28 11:45:11;;;;;;;5.37;3.70;;;24.40;32.60;;;;;;6106063;23;20382;-78
2023/05/28 11:47:38;;;;;;;7.70;4.40;;;24.30;32.80;;;;;;6156723;23;20510;-80
2023/05/28 11:50:13;;;;;;;5.47;4.00;;;24.30;32.90;;;;;;6190972;23;20425;-77
2023/05/28 11:52:38;;;;;;;6.40;4.30;;;24.30;32.80;;;;;;6186295;23;20381;-79
2023/05/28 11:55:05;;;;;;;6.80;4.10;;;24.30;32.50;;;;;;6126446;23;20404;-79
2023/05/28 11:57:39;;;;;;;5.30;4.20;;;24.20;32.30;;;;;;6126754;23;20155;-79
2023/05/28 12:00:31;;;;;;;10.47;4.60;;;24.20;32.40;;;;;;6102956;23;20404;-78
2023/05/28 12:03:00;;;;;;;4.73;4.00;;;24.30;32.10;;;;;;6035123;23;20401;-78
2023/05/28 12:05:38;;;;;;;4.57;4.13;;;24.30;32.40;;;;;;6035188;23;20456;-79
2023/05/28 12:08:05;;;;;;;8.20;5.00;;;24.40;32.10;;;;;;6010988;23;20427;-79
2023/05/28 12:10:31;;;;;;;6.97;4.50;;;24.40;32.10;;;;;;6012276;23;20407;-77
2023/05/28 12:13:19;;;;;;;6.27;4.37;;;24.60;32.00;;;;;;6012367;23;20374;-78
2023/05/28 12:15:47;;;;;;;7.23;4.47;;;24.60;32.00;;;;;;5989658;23;20387;-80
2023/05/28 12:18:13;;;;;;;8.13;4.80;;;24.50;31.70;;;;;;6013298;23;20406;-78
2023/05/28 12:20:43;;;;;;;10.83;3.97;;;24.40;32.10;;;;;;6105271;23;20434;-79
2023/05/28 12:23:13;;;;;;;6.70;4.30;;;24.50;31.90;;;;;;6182262;23;20402;-78
2023/05/28 12:26:03;;;;;;;8.43;4.20;;;24.50;32.30;;;;;;6132541;23;20466;-79
2023/05/28 12:32:01;;;;;;;7.90;4.53;;;24.80;32.00;;;;;;6224210;22;20429;-81
2023/05/28 12:34:27;;;;;;;9.60;4.67;;;24.80;31.90;;;;;;6168145;22;20401;-80
2023/05/28 12:37:09;;;;;;;6.37;4.20;;;24.80;32.20;;;;;;6243334;22;20396;-79
2023/05/28 12:39:35;;;;;;;6.90;4.70;;;24.80;32.20;;;;;;6217262;23;20416;-79
2023/05/28 12:44:52;;;;;;;6.00;4.17;;;24.60;32.30;;;;;;6241126;22;20463;-80
2023/05/28 12:47:21;;;;;;;6.00;4.67;;;24.70;32.50;;;;;;6161956;23;20429;-78
2023/05/28 12:49:47;;;;;;;5.47;4.97;;;24.70;32.80;;;;;;6184792;23;20437;-80
2023/05/28 12:52:15;;;;;;;6.47;4.57;;;24.90;33.10;;;;;;6137286;23;20177;-78
2023/05/28 12:54:42;;;;;;;5.37;4.43;;;24.90;32.70;;;;;;6137006;23;20409;-78
2023/05/28 12:57:08;;;;;;;7.27;4.10;;;25.00;32.60;;;;;;6159618;23;20453;-78
2023/05/28 12:59:55;;;;;;;4.10;3.67;;;25.10;32.30;;;;;;6184265;23;20392;-79
2023/05/28 13:02:27;;;;;;;7.43;3.80;;;24.90;32.50;;;;;;6209654;23;20189;-78
2023/05/28 13:04:53;;;;;;;5.77;5.27;;;24.80;32.20;;;;;;6160047;23;20706;-78